Time;durP1;ratioP1;P1;durP2;ratioP2;P2;SDS_P1;SDS_P2;PMS_P1;PMS_P2;Temp;Humidity;BMP_temperature;BMP_pressure;BME280_temperature;BME280_humidity;BME280_pressure;Samples;Min_cycle;Max_cycle;Signal;HPM_P1;HPM_P2
2020/12/14 00:01:34;;;;;;;;;;;;;;;;;;5095782;28;19978;-68
2020/12/14 00:04:00;;;;;;;;;;;;;;;;;;5095717;28;20312;-68
2020/12/14 00:06:26;;;;;;;;;;;;;;;;;;5095564;28;20374;-68
2020/12/14 00:08:52;;;;;;;;;;;;;;;;;;5094739;28;19908;-67
2020/12/14 00:11:18;;;;;;;;;;;;;;;;;;5095532;28;19908;-68
2020/12/14 00:13:44;;;;;;;;;;;;;;;;;;5095470;28;19942;-68
2020/12/14 00:16:10;;;;;;;;;;;;;;;;;;5096041;28;19908;-69
2020/12/14 00:18:36;;;;;;;;;;;;;;;;;;5095394;28;19908;-68
2020/12/14 00:21:02;;;;;;;;;;;;;;;;;;5095947;28;19908;-68
2020/12/14 00:23:28;;;;;;;;;;;;;;;;;;5095317;28;19908;-68
2020/12/14 00:25:54;;;;;;;;;;;;;;;;;;5095302;28;19908;-68
2020/12/14 00:28:20;;;;;;;;;;;;;;;;;;5095260;28;19908;-68
2020/12/14 00:30:46;;;;;;;;;;;;;;;;;;5095184;28;19908;-68
2020/12/14 00:33:12;;;;;;;;;;;;;;;;;;5095116;28;19916;-68
2020/12/14 00:35:38;;;;;;;;;;;;;;;;;;5095701;28;19915;-68
2020/12/14 00:38:04;;;;;;;;;;;;;;;;;;5095082;28;19915;-68
2020/12/14 00:40:30;;;;;;;;;;;;;;;;;;5095562;28;19962;-68
2020/12/14 00:42:56;;;;;;;;;;;;;;;;;;5094790;28;19921;-68
2020/12/14 00:45:22;;;;;;;;;;;;;;;;;;5094960;28;19908;-68
2020/12/14 00:47:48;;;;;;;;;;;;;;;;;;5092842;28;19908;-68
2020/12/14 00:50:14;;;;;;;;;;;;;;;;;;5094871;28;19915;-68
2020/12/14 00:52:41;;;;;;;;;;;;;;;;;;5094741;28;19915;-68
2020/12/14 00:55:07;;;;;;;;;;;;;;;;;;5094782;28;19916;-68
2020/12/14 00:57:33;;;;;;;;;;;;;;;;;;5095357;28;19908;-72
2020/12/14 00:59:59;;;;;;;;;;;;;;;;;;5094687;28;19908;-72
2020/12/14 01:02:25;;;;;;;;;;;;;;;;;;5095235;28;19908;-72
2020/12/14 01:04:51;;;;;;;;;;;;;;;;;;5094605;28;20251;-72
2020/12/14 01:07:17;;;;;;;;;;;;;;;;;;5094890;28;19912;-72
2020/12/14 01:09:43;;;;;;;;;;;;;;;;;;5094571;28;19909;-72
2020/12/14 01:12:09;;;;;;;;;;;;;;;;;;5094798;28;20234;-72
2020/12/14 01:14:35;;;;;;;;;;;;;;;;;;5094431;28;19916;-71
2020/12/14 01:17:01;;;;;;;;;;;;;;;;;;5095009;28;20261;-71
2020/12/14 01:19:27;;;;;;;;;;;;;;;;;;5094413;28;20358;-72
2020/12/14 01:21:54;;;;;;;;;;;;;;;;;;5094663;28;19908;-72
2020/12/14 01:24:20;;;;;;;;;;;;;;;;;;5094369;28;19908;-71
2020/12/14 01:26:46;;;;;;;;;;;;;;;;;;5094838;28;19974;-72
2020/12/14 01:29:12;;;;;;;;;;;;;;;;;;5094843;28;19908;-72
2020/12/14 01:31:38;;;;;;;;;;;;;;;;;;5094251;28;20344;-72
2020/12/14 01:34:04;;;;;;;;;;;;;;;;;;5094137;28;20381;-72
2020/12/14 01:36:30;;;;;;;;;;;;;;;;;;5094183;28;19909;-72
2020/12/14 01:38:56;;;;;;;;;;;;;;;;;;5094089;28;19919;-72
2020/12/14 01:41:22;;;;;;;;;;;;;;;;;;5093859;28;19908;-69
2020/12/14 01:43:48;;;;;;;;;;;;;;;;;;5094121;28;19916;-70
2020/12/14 01:46:14;;;;;;;;;;;;;;;;;;5094097;28;19908;-70
2020/12/14 01:48:40;;;;;;;;;;;;;;;;;;5094006;28;19912;-70
2020/12/14 01:51:06;;;;;;;;;;;;;;;;;;5094002;28;19908;-70
2020/12/14 01:53:32;;;;;;;;;;;;;;;;;;5094212;28;19916;-71
2020/12/14 01:55:58;;;;;;;;;;;;;;;;;;5094241;28;19908;-72
2020/12/14 01:58:24;;;;;;;;;;;;;;;;;;5094262;28;20261;-72
2020/12/14 02:00:50;;;;;;;;;;;;;;;;;;5093967;28;20358;-72
2020/12/14 02:03:16;;;;;;;;;;;;;;;;;;5094167;28;20277;-73
2020/12/14 02:05:42;;;;;;;;;;;;;;;;;;5093873;28;20369;-72
2020/12/14 02:08:08;;;;;;;;;;;;;;;;;;5093835;28;20377;-72
2020/12/14 02:10:34;;;;;;;;;;;;;;;;;;5093788;28;19909;-72
2020/12/14 02:13:00;;;;;;;;;;;;;;;;;;5093764;28;19916;-72
2020/12/14 02:15:26;;;;;;;;;;;;;;;;;;5094412;28;19912;-72
2020/12/14 02:17:52;;;;;;;;;;;;;;;;;;5093706;28;19908;-72
2020/12/14 02:20:18;;;;;;;;;;;;;;;;;;5093686;28;19909;-72
2020/12/14 02:22:44;;;;;;;;;;;;;;;;;;5093995;28;20347;-72
2020/12/14 02:25:10;;;;;;;;;;;;;;;;;;5093709;28;19951;-72
2020/12/14 02:27:37;;;;;;;;;;;;;;;;;;5093694;28;19908;-72
2020/12/14 02:30:03;;;;;;;;;;;;;;;;;;5093723;28;20002;-72
2020/12/14 02:32:30;;;;;;;;;;;;;;;;;;5097313;28;19908;-72
2020/12/14 02:34:56;;;;;;;;;;;;;;;;;;5098052;28;20381;-72
2020/12/14 02:37:22;;;;;;;;;;;;;;;;;;5097802;28;20308;-72
2020/12/14 02:39:48;;;;;;;;;;;;;;;;;;5097395;28;20419;-72
2020/12/14 02:42:14;;;;;;;;;;;;;;;;;;5097047;28;19926;-72
2020/12/14 02:44:40;;;;;;;;;;;;;;;;;;5097264;28;20004;-72
2020/12/14 02:47:06;;;;;;;;;;;;;;;;;;5097186;28;19916;-72
2020/12/14 02:49:32;;;;;;;;;;;;;;;;;;5097142;28;19915;-72
2020/12/14 02:51:58;;;;;;;;;;;;;;;;;;5097178;28;20424;-72
2020/12/14 02:54:24;;;;;;;;;;;;;;;;;;5097043;28;20262;-72
2020/12/14 02:56:50;;;;;;;;;;;;;;;;;;5096930;28;20695;-72
2020/12/14 02:59:16;;;;;;;;;;;;;;;;;;5096984;28;19904;-72
2020/12/14 03:01:42;;;;;;;;;;;;;;;;;;5096915;28;19908;-72
2020/12/14 03:04:08;;;;;;;;;;;;;;;;;;5096926;28;19904;-72
2020/12/14 03:06:34;;;;;;;;;;;;;;;;;;5096883;28;19904;-72
2020/12/14 03:09:00;;;;;;;;;;;;;;;;;;5097096;28;20341;-72
2020/12/14 03:11:26;;;;;;;;;;;;;;;;;;5096706;28;19904;-72
2020/12/14 03:13:52;;;;;;;;;;;;;;;;;;5096586;28;19912;-72
2020/12/14 03:16:18;;;;;;;;;;;;;;;;;;5096667;28;19904;-72
2020/12/14 03:18:44;;;;;;;;;;;;;;;;;;5096664;28;19904;-72
2020/12/14 03:21:10;;;;;;;;;;;;;;;;;;5096546;28;19904;-72
2020/12/14 03:23:36;;;;;;;;;;;;;;;;;;5097148;28;19904;-72
2020/12/14 03:26:02;;;;;;;;;;;;;;;;;;5096407;28;19904;-72
2020/12/14 03:28:28;;;;;;;;;;;;;;;;;;5097239;28;19903;-72
2020/12/14 03:30:54;;;;;;;;;;;;;;;;;;5096369;28;19911;-72
2020/12/14 03:33:21;;;;;;;;;;;;;;;;;;5096505;28;19912;-72
2020/12/14 03:35:47;;;;;;;;;;;;;;;;;;5096335;28;19914;-72
2020/12/14 03:38:13;;;;;;;;;;;;;;;;;;5096853;28;19904;-72
2020/12/14 03:40:39;;;;;;;;;;;;;;;;;;5096170;28;19904;-72
2020/12/14 03:43:05;;;;;;;;;;;;;;;;;;5095806;28;19916;-72
2020/12/14 03:45:31;;;;;;;;;;;;;;;;;;5096093;28;19923;-72
2020/12/14 03:47:57;;;;;;;;;;;;;;;;;;5096068;28;19961;-72
2020/12/14 03:50:23;;;;;;;;;;;;;;;;;;5095931;28;19930;-72
2020/12/14 03:52:50;;;;;;;;;;;;;;;;;;5095890;28;19911;-72
2020/12/14 03:55:16;;;;;;;;;;;;;;;;;;5095934;28;20358;-72
2020/12/14 03:57:42;;;;;;;;;;;;;;;;;;5095904;28;19986;-72
2020/12/14 04:00:08;;;;;;;;;;;;;;;;;;5095813;28;19915;-72
2020/12/14 04:02:34;;;;;;;;;;;;;;;;;;5095760;28;19966;-72
2020/12/14 04:05:00;;;;;;;;;;;;;;;;;;5095653;28;19970;-72
2020/12/14 04:07:26;;;;;;;;;;;;;;;;;;5096264;28;19904;-72
2020/12/14 04:09:52;;;;;;;;;;;;;;;;;;5095566;28;19904;-72
2020/12/14 04:12:18;;;;;;;;;;;;;;;;;;5096106;28;19904;-72
2020/12/14 04:14:44;;;;;;;;;;;;;;;;;;5095468;28;19912;-71
2020/12/14 04:17:10;;;;;;;;;;;;;;;;;;5095497;28;19904;-71
2020/12/14 04:19:36;;;;;;;;;;;;;;;;;;5095423;28;19911;-67
2020/12/14 04:22:07;;;;;;;;;;;;;;;;;;5095325;28;19904;-66
2020/12/14 04:24:33;;;;;;;;;;;;;;;;;;5095344;28;19904;-66
2020/12/14 04:26:59;;;;;;;;;;;;;;;;;;5095240;28;19904;-67
2020/12/14 04:29:25;;;;;;;;;;;;;;;;;;5095547;28;19904;-67
2020/12/14 04:31:51;;;;;;;;;;;;;;;;;;5095805;28;19904;-67
2020/12/14 04:34:17;;;;;;;;;;;;;;;;;;5095378;28;19916;-68
2020/12/14 04:36:43;;;;;;;;;;;;;;;;;;5095119;28;19904;-70
2020/12/14 04:39:09;;;;;;;;;;;;;;;;;;5095131;28;19949;-67
2020/12/14 04:41:35;;;;;;;;;;;;;;;;;;5095305;28;19915;-66
2020/12/14 04:44:02;;;;;;;;;;;;;;;;;;5095029;28;19950;-67
2020/12/14 04:46:28;;;;;;;;;;;;;;;;;;5094994;28;19947;-67
2020/12/14 04:48:54;;;;;;;;;;;;;;;;;;5094944;28;19904;-67
2020/12/14 04:51:20;;;;;;;;;;;;;;;;;;5095402;28;19904;-67
2020/12/14 04:53:46;;;;;;;;;;;;;;;;;;5094266;28;19920;-67
2020/12/14 04:56:12;;;;;;;;;;;;;;;;;;5095348;28;19904;-67
2020/12/14 04:58:38;;;;;;;;;;;;;;;;;;5094996;28;20008;-67
2020/12/14 05:01:04;;;;;;;;;;;;;;;;;;5095605;28;20265;-67
2020/12/14 05:03:30;;;;;;;;;;;;;;;;;;5094922;28;20339;-67
2020/12/14 05:05:56;;;;;;;;;;;;;;;;;;5094899;28;19904;-66
2020/12/14 05:08:22;;;;;;;;;;;;;;;;;;5094571;28;19904;-67
2020/12/14 05:10:48;;;;;;;;;;;;;;;;;;5094859;28;19907;-67
2020/12/14 05:13:14;;;;;;;;;;;;;;;;;;5094424;28;19908;-67
2020/12/14 05:15:40;;;;;;;;;;;;;;;;;;5094533;28;19904;-67
2020/12/14 05:18:06;;;;;;;;;;;;;;;;;;5094460;28;20003;-67
2020/12/14 05:20:32;;;;;;;;;;;;;;;;;;5094391;28;19904;-67
2020/12/14 05:22:58;;;;;;;;;;;;;;;;;;5094375;28;19904;-67
2020/12/14 05:25:24;;;;;;;;;;;;;;;;;;5094264;28;19911;-70
2020/12/14 05:27:50;;;;;;;;;;;;;;;;;;5094280;28;19904;-67
2020/12/14 05:30:16;;;;;;;;;;;;;;;;;;5094298;28;19911;-67
2020/12/14 05:32:42;;;;;;;;;;;;;;;;;;5094734;28;19911;-68
2020/12/14 05:35:08;;;;;;;;;;;;;;;;;;5094223;28;19915;-67
2020/12/14 05:37:34;;;;;;;;;;;;;;;;;;5094546;28;19911;-67
2020/12/14 05:40:00;;;;;;;;;;;;;;;;;;5094698;28;19904;-67
2020/12/14 05:42:26;;;;;;;;;;;;;;;;;;5093907;28;19916;-67
2020/12/14 05:44:52;;;;;;;;;;;;;;;;;;5094100;28;19929;-66
2020/12/14 05:47:18;;;;;;;;;;;;;;;;;;5094069;28;20270;-66
2020/12/14 05:49:44;;;;;;;;;;;;;;;;;;5094175;28;19908;-67
2020/12/14 05:52:11;;;;;;;;;;;;;;;;;;5093881;28;19904;-67
2020/12/14 05:54:37;;;;;;;;;;;;;;;;;;5093967;28;20092;-66
2020/12/14 05:57:03;;;;;;;;;;;;;;;;;;5093840;28;19994;-67
2020/12/14 05:59:29;;;;;;;;;;;;;;;;;;5094573;28;19911;-66
2020/12/14 06:01:55;;;;;;;;;;;;;;;;;;5094168;28;20346;-66
2020/12/14 06:04:21;;;;;;;;;;;;;;;;;;5093923;28;19908;-66
2020/12/14 06:06:47;;;;;;;;;;;;;;;;;;5096592;28;19908;-66
2020/12/14 06:09:13;;;;;;;;;;;;;;;;;;5098528;28;19907;-66
2020/12/14 06:11:39;;;;;;;;;;;;;;;;;;5097923;28;19904;-66
2020/12/14 06:14:05;;;;;;;;;;;;;;;;;;5098366;28;19912;-66
2020/12/14 06:16:32;;;;;;;;;;;;;;;;;;5097798;28;20365;-66
2020/12/14 06:18:58;;;;;;;;;;;;;;;;;;5097714;28;19907;-67
2020/12/14 06:21:24;;;;;;;;;;;;;;;;;;5098325;28;19904;-68
2020/12/14 06:23:50;;;;;;;;;;;;;;;;;;5097671;28;19908;-67
2020/12/14 06:26:16;;;;;;;;;;;;;;;;;;5097686;28;19904;-67
2020/12/14 06:28:42;;;;;;;;;;;;;;;;;;5098198;28;19904;-67
2020/12/14 06:31:08;;;;;;;;;;;;;;;;;;5097510;28;19904;-68
2020/12/14 06:33:34;;;;;;;;;;;;;;;;;;5097449;28;19912;-67
2020/12/14 06:36:00;;;;;;;;;;;;;;;;;;5097423;28;19908;-67
2020/12/14 06:38:26;;;;;;;;;;;;;;;;;;5097425;28;19903;-67
2020/12/14 06:40:52;;;;;;;;;;;;;;;;;;5097328;28;19904;-68
2020/12/14 06:43:18;;;;;;;;;;;;;;;;;;5097185;28;19916;-68
2020/12/14 06:45:44;;;;;;;;;;;;;;;;;;5097584;28;20262;-71
2020/12/14 06:48:10;;;;;;;;;;;;;;;;;;5097093;28;20354;-70
2020/12/14 06:50:39;;;;;;;;;;;;;;;;;;5097231;28;19904;-70
2020/12/14 06:53:05;;;;;;;;;;;;;;;;;;5097123;28;20327;-68
2020/12/14 06:55:31;;;;;;;;;;;;;;;;;;5097386;28;19912;-68
2020/12/14 06:57:57;;;;;;;;;;;;;;;;;;5097004;28;19944;-68
2020/12/14 07:00:23;;;;;;;;;;;;;;;;;;5097573;28;19957;-67
2020/12/14 07:02:49;;;;;;;;;;;;;;;;;;5096941;28;19911;-68
2020/12/14 07:05:15;;;;;;;;;;;;;;;;;;5097711;28;19911;-68
2020/12/14 07:07:41;;;;;;;;;;;;;;;;;;5096873;28;19912;-67
2020/12/14 07:10:07;;;;;;;;;;;;;;;;;;5096793;28;19953;-68
2020/12/14 07:12:35;;;;;;;;;;;;;;;;;;5097302;28;19949;-71
2020/12/14 07:15:01;;;;;;;;;;;;;;;;;;5096699;28;20358;-67
2020/12/14 07:17:27;;;;;;;;;;;;;;;;;;5096053;28;19908;-66
2020/12/14 07:19:53;;;;;;;;;;;;;;;;;;5097193;28;20274;-68
2020/12/14 07:22:19;;;;;;;;;;;;;;;;;;5096537;28;19904;-67
2020/12/14 07:24:45;;;;;;;;;;;;;;;;;;5096517;28;19967;-67
2020/12/14 07:27:11;;;;;;;;;;;;;;;;;;5096805;28;20250;-72
2020/12/14 07:29:37;;;;;;;;;;;;;;;;;;5096771;28;19915;-68
2020/12/14 07:32:03;;;;;;;;;;;;;;;;;;5096331;28;19926;-69
2020/12/14 07:34:29;;;;;;;;;;;;;;;;;;5096116;28;19965;-68
2020/12/14 07:36:55;;;;;;;;;;;;;;;;;;5096822;28;19911;-68
2020/12/14 07:39:21;;;;;;;;;;;;;;;;;;5096164;28;19911;-72
2020/12/14 07:41:47;;;;;;;;;;;;;;;;;;5096336;28;19923;-72
2020/12/14 07:44:13;;;;;;;;;;;;;;;;;;5095298;28;20489;-73
2020/12/14 07:46:39;;;;;;;;;;;;;;;;;;5095756;28;19954;-73
2020/12/14 07:49:06;;;;;;;;;;;;;;;;;;5095634;28;19904;-74
2020/12/14 07:51:32;;;;;;;;;;;;;;;;;;5096606;28;19973;-74
2020/12/14 07:53:58;;;;;;;;;;;;;;;;;;5095886;28;19912;-73
2020/12/14 07:56:24;;;;;;;;;;;;;;;;;;5096658;28;19904;-75
2020/12/14 07:58:50;;;;;;;;;;;;;;;;;;5095831;28;19908;-73
2020/12/14 08:01:16;;;;;;;;;;;;;;;;;;5095853;28;19904;-74
2020/12/14 08:03:42;;;;;;;;;;;;;;;;;;5095824;28;19966;-74
2020/12/14 08:06:08;;;;;;;;;;;;;;;;;;5095786;28;19908;-73
2020/12/14 08:08:35;;;;;;;;;;;;;;;;;;5095659;28;19904;-73
2020/12/14 08:11:01;;;;;;;;;;;;;;;;;;5095655;28;19908;-73
2020/12/14 08:13:27;;;;;;;;;;;;;;;;;;5095525;28;20364;-73
2020/12/14 08:15:53;;;;;;;;;;;;;;;;;;5095566;28;20301;-73
2020/12/14 08:18:19;;;;;;;;;;;;;;;;;;5095453;28;20361;-73
2020/12/14 08:20:45;;;;;;;;;;;;;;;;;;5095403;28;20392;-73
2020/12/14 08:23:11;;;;;;;;;;;;;;;;;;5095703;28;20246;-73
2020/12/14 08:25:37;;;;;;;;;;;;;;;;;;5095634;28;20293;-74
2020/12/14 08:28:03;;;;;;;;;;;;;;;;;;5094528;28;19904;-73
2020/12/14 08:30:29;;;;;;;;;;;;;;;;;;5095116;28;19904;-73
2020/12/14 08:32:55;;;;;;;;;;;;;;;;;;5095122;28;19957;-73
2020/12/14 08:35:21;;;;;;;;;;;;;;;;;;5095746;28;19915;-73
2020/12/14 08:37:47;;;;;;;;;;;;;;;;;;5095040;28;19925;-74
2020/12/14 08:40:13;;;;;;;;;;;;;;;;;;5094947;28;19904;-73
2020/12/14 08:42:39;;;;;;;;;;;;;;;;;;5094704;28;19916;-73
2020/12/14 08:45:05;;;;;;;;;;;;;;;;;;5094990;28;19904;-73
2020/12/14 08:47:31;;;;;;;;;;;;;;;;;;5094952;28;19908;-73
2020/12/14 08:49:57;;;;;;;;;;;;;;;;;;5094825;28;19908;-74
2020/12/14 08:52:23;;;;;;;;;;;;;;;;;;5094837;28;19911;-73
2020/12/14 08:54:49;;;;;;;;;;;;;;;;;;5094700;28;19965;-73
2020/12/14 08:57:15;;;;;;;;;;;;;;;;;;5095251;28;19957;-74
2020/12/14 08:59:41;;;;;;;;;;;;;;;;;;5094749;28;19927;-74
2020/12/14 09:02:10;;;;;;;;;;;;;;;;;;5094722;28;20282;-74
2020/12/14 09:04:40;;;;;;;;;;;;;;;;;;5094538;28;20421;-68
2020/12/14 09:07:06;;;;;;;;;;;;;;;;;;5094463;28;19904;-67
2020/12/14 09:09:32;;;;;;;;;;;;;;;;;;5094784;28;19904;-68
2020/12/14 09:11:58;;;;;;;;;;;;;;;;;;5095176;28;19904;-69
2020/12/14 09:14:27;;;;;;;;;;;;;;;;;;5094282;28;19912;-66
2020/12/14 09:16:53;;;;;;;;;;;;;;;;;;5094167;28;20354;-67
2020/12/14 09:19:19;;;;;;;;;;;;;;;;;;5094597;28;20246;-71
2020/12/14 09:21:45;;;;;;;;;;;;;;;;;;5094685;28;20261;-67
2020/12/14 09:24:11;;;;;;;;;;;;;;;;;;5094540;28;19911;-67
2020/12/14 09:26:37;;;;;;;;;;;;;;;;;;5094514;28;20257;-67
2020/12/14 09:29:03;;;;;;;;;;;;;;;;;;5094249;28;19904;-68
2020/12/14 09:31:29;;;;;;;;;;;;;;;;;;5094543;28;19930;-71
2020/12/14 09:33:55;;;;;;;;;;;;;;;;;;5094182;28;19918;-67
2020/12/14 09:36:21;;;;;;;;;;;;;;;;;;5094074;28;19961;-67
2020/12/14 09:38:47;;;;;;;;;;;;;;;;;;5094393;28;20239;-68
2020/12/14 09:41:14;;;;;;;;;;;;;;;;;;5093646;28;20378;-68
2020/12/14 09:43:40;;;;;;;;;;;;;;;;;;5094417;28;20294;-67
2020/12/14 09:46:06;;;;;;;;;;;;;;;;;;5093976;28;20362;-67
2020/12/14 09:48:32;;;;;;;;;;;;;;;;;;5094372;28;19904;-67
2020/12/14 09:50:58;;;;;;;;;;;;;;;;;;5093983;28;19908;-67
2020/12/14 09:53:24;;;;;;;;;;;;;;;;;;5093905;28;19918;-68
2020/12/14 09:55:50;;;;;;;;;;;;;;;;;;5094024;28;19910;-67
2020/12/14 09:58:16;;;;;;;;;;;;;;;;;;5093938;28;19934;-72
2020/12/14 10:00:42;;;;;;;;;;;;;;;;;;5094136;28;19957;-68
2020/12/14 10:03:09;;;;;;;;;;;;;;;;;;5093957;28;19999;-67
2020/12/14 10:05:35;;;;;;;;;;;;;;;;;;5093876;28;19961;-67
2020/12/14 10:08:01;;;;;;;;;;;;;;;;;;5093882;28;19957;-68
2020/12/14 10:10:27;;;;;;;;;;;;;;;;;;5093819;28;19911;-73
2020/12/14 10:12:59;;;;;;;;;;;;;;;;;;5093783;28;19913;-68
2020/12/14 10:15:25;;;;;;;;;;;;;;;;;;5094528;28;20297;-68
2020/12/14 10:17:51;;;;;;;;;;;;;;;;;;5093593;28;19904;-68
2020/12/14 10:20:17;;;;;;;;;;;;;;;;;;5094391;28;19908;-68
2020/12/14 10:22:43;;;;;;;;;;;;;;;;;;5093678;28;20445;-67
2020/12/14 10:25:09;;;;;;;;;;;;;;;;;;5093674;28;19911;-67
2020/12/14 10:27:36;;;;;;;;;;;;;;;;;;5093765;28;19910;-67
2020/12/14 10:30:02;;;;;;;;;;;;;;;;;;5093646;28;19904;-67
2020/12/14 10:32:28;;;;;;;;;;;;;;;;;;5093569;28;19915;-72
2020/12/14 10:34:54;;;;;;;;;;;;;;;;;;5093541;28;19912;-67
2020/12/14 10:37:20;;;;;;;;;;;;;;;;;;5093523;28;19904;-67
2020/12/14 10:39:46;;;;;;;;;;;;;;;;;;5093622;28;19904;-68
2020/12/14 10:42:12;;;;;;;;;;;;;;;;;;5093396;28;19916;-67
2020/12/14 10:44:38;;;;;;;;;;;;;;;;;;5093527;28;19904;-68
2020/12/14 10:47:04;;;;;;;;;;;;;;;;;;5093394;28;19911;-67
2020/12/14 10:49:30;;;;;;;;;;;;;;;;;;5093480;28;20342;-67
2020/12/14 10:51:56;;;;;;;;;;;;;;;;;;5094581;28;19975;-68
2020/12/14 10:54:22;;;;;;;;;;;;;;;;;;5097016;28;19912;-67
2020/12/14 10:56:48;;;;;;;;;;;;;;;;;;5096887;28;19904;-67
2020/12/14 10:59:14;;;;;;;;;;;;;;;;;;5097009;28;19904;-67
2020/12/14 11:01:40;;;;;;;;;;;;;;;;;;5097338;28;19904;-72
2020/12/14 11:04:06;;;;;;;;;;;;;;;;;;5096882;28;19908;-67
2020/12/14 11:06:32;;;;;;;;;;;;;;;;;;5096872;28;19908;-74
2020/12/14 11:08:58;;;;;;;;;;;;;;;;;;5097111;28;19904;-68
2020/12/14 11:11:24;;;;;;;;;;;;;;;;;;5096839;28;19963;-67
2020/12/14 11:13:50;;;;;;;;;;;;;;;;;;5097007;28;19965;-67
2020/12/14 11:16:16;;;;;;;;;;;;;;;;;;5096641;28;19970;-68
2020/12/14 11:18:43;;;;;;;;;;;;;;;;;;5097234;28;19904;-72
2020/12/14 11:21:09;;;;;;;;;;;;;;;;;;5096872;28;19911;-67
2020/12/14 11:23:35;;;;;;;;;;;;;;;;;;5096485;28;19910;-71
2020/12/14 11:26:01;;;;;;;;;;;;;;;;;;5096517;28;19904;-67
2020/12/14 11:28:27;;;;;;;;;;;;;;;;;;5096441;28;19904;-68
2020/12/14 11:30:53;;;;;;;;;;;;;;;;;;5096919;28;19904;-67
2020/12/14 11:33:21;;;;;;;;;;;;;;;;;;5096360;28;19915;-67
2020/12/14 11:35:47;;;;;;;;;;;;;;;;;;5096885;28;19998;-68
2020/12/14 11:38:13;;;;;;;;;;;;;;;;;;5096215;28;19941;-68
2020/12/14 11:40:39;;;;;;;;;;;;;;;;;;5096236;28;19911;-68
2020/12/14 11:43:05;;;;;;;;;;;;;;;;;;5096105;28;19916;-65
2020/12/14 11:45:33;;;;;;;;;;;;;;;;;;5092720;28;20142;-65
2020/12/14 11:47:59;;;;;;;;;;;;;;;;;;5095617;28;19914;-66
2020/12/14 11:50:25;;;;;;;;;;;;;;;;;;5095884;28;19958;-66
2020/12/14 11:52:51;;;;;;;;;;;;;;;;;;5077718;28;19973;-66
2020/12/14 11:55:17;;;;;;;;;;;;;;;;;;5095357;28;20325;-66
2020/12/14 11:57:43;;;;;;;;;;;;;;;;;;5095744;28;20285;-66
2020/12/14 12:00:09;;;;;;;;;;;;;;;;;;5095740;28;20360;-67
2020/12/14 12:02:35;;;;;;;;;;;;;;;;;;5095394;28;19915;-70
2020/12/14 12:05:01;;;;;;;;;;;;;;;;;;5096048;28;20266;-67
2020/12/14 12:07:27;;;;;;;;;;;;;;;;;;5095677;28;20362;-66
2020/12/14 12:09:53;;;;;;;;;;;;;;;;;;5095388;28;19909;-65
2020/12/14 12:12:19;;;;;;;;;;;;;;;;;;5095498;28;19912;-67
2020/12/14 12:14:45;;;;;;;;;;;;;;;;;;5095559;28;20319;-66
2020/12/14 12:17:11;;;;;;;;;;;;;;;;;;5095301;28;20399;-71
2020/12/14 12:19:37;;;;;;;;;;;;;;;;;;5095327;28;19919;-68
2020/12/14 12:22:03;;;;;;;;;;;;;;;;;;5095413;28;19923;-66
2020/12/14 12:24:29;;;;;;;;;;;;;;;;;;5096029;28;19992;-66
2020/12/14 12:26:55;;;;;;;;;;;;;;;;;;5095249;28;19914;-66
2020/12/14 12:29:21;;;;;;;;;;;;;;;;;;5095110;28;20001;-66
2020/12/14 12:31:47;;;;;;;;;;;;;;;;;;5095270;28;19919;-67
2020/12/14 12:34:13;;;;;;;;;;;;;;;;;;5095008;28;19985;-68
2020/12/14 12:36:40;;;;;;;;;;;;;;;;;;5095133;28;20354;-68
2020/12/14 12:39:06;;;;;;;;;;;;;;;;;;5095049;28;19915;-72
2020/12/14 12:41:32;;;;;;;;;;;;;;;;;;5094427;28;19912;-66
2020/12/14 12:43:58;;;;;;;;;;;;;;;;;;5094214;28;19912;-66
2020/12/14 12:46:24;;;;;;;;;;;;;;;;;;5094723;28;19908;-66
2020/12/14 12:48:50;;;;;;;;;;;;;;;;;;5093379;28;19912;-66
2020/12/14 12:51:16;;;;;;;;;;;;;;;;;;5094388;28;19915;-66
2020/12/14 12:53:42;;;;;;;;;;;;;;;;;;5094553;28;19926;-65
2020/12/14 12:56:08;;;;;;;;;;;;;;;;;;5094414;28;19919;-66
2020/12/14 12:58:34;;;;;;;;;;;;;;;;;;5094505;28;19908;-67
2020/12/14 13:01:00;;;;;;;;;;;;;;;;;;5094732;28;19908;-67
2020/12/14 13:03:26;;;;;;;;;;;;;;;;;;5094756;28;19908;-67
2020/12/14 13:05:52;;;;;;;;;;;;;;;;;;5094513;28;19909;-67
2020/12/14 13:08:18;;;;;;;;;;;;;;;;;;5094608;28;19909;-67
2020/12/14 13:10:44;;;;;;;;;;;;;;;;;;5095176;28;19908;-66
2020/12/14 13:13:10;;;;;;;;;;;;;;;;;;5094452;28;19908;-66
2020/12/14 13:15:36;;;;;;;;;;;;;;;;;;5094894;28;19935;-65
2020/12/14 13:18:02;;;;;;;;;;;;;;;;;;5094443;28;19931;-66
2020/12/14 13:20:28;;;;;;;;;;;;;;;;;;5094648;28;20267;-65
2020/12/14 13:22:54;;;;;;;;;;;;;;;;;;5094336;28;20373;-66
2020/12/14 13:25:20;;;;;;;;;;;;;;;;;;5094358;28;19916;-66
2020/12/14 13:27:46;;;;;;;;;;;;;;;;;;5094278;28;19908;-66
2020/12/14 13:30:12;;;;;;;;;;;;;;;;;;5094235;28;19908;-68
2020/12/14 13:32:38;;;;;;;;;;;;;;;;;;5094260;28;19915;-66
2020/12/14 13:35:04;;;;;;;;;;;;;;;;;;5094143;28;19927;-72
2020/12/14 13:37:30;;;;;;;;;;;;;;;;;;5094799;28;20347;-65
2020/12/14 13:39:56;;;;;;;;;;;;;;;;;;5094727;28;19908;-66
2020/12/14 13:42:22;;;;;;;;;;;;;;;;;;5093960;28;19944;-70
2020/12/14 13:44:48;;;;;;;;;;;;;;;;;;5076023;28;19909;-68
2020/12/14 13:47:14;;;;;;;;;;;;;;;;;;5094632;28;19908;-73
2020/12/14 13:49:41;;;;;;;;;;;;;;;;;;5094040;28;19908;-66
2020/12/14 13:52:07;;;;;;;;;;;;;;;;;;5094028;28;19908;-68
2020/12/14 13:54:33;;;;;;;;;;;;;;;;;;5094494;28;19923;-67
2020/12/14 13:56:59;;;;;;;;;;;;;;;;;;5093920;28;19912;-67
2020/12/14 13:59:25;;;;;;;;;;;;;;;;;;5094545;28;19958;-67
2020/12/14 14:01:51;;;;;;;;;;;;;;;;;;5094584;28;20307;-71
2020/12/14 14:04:17;;;;;;;;;;;;;;;;;;5093973;28;20492;-67
2020/12/14 14:06:43;;;;;;;;;;;;;;;;;;5093955;28;19908;-67
2020/12/14 14:09:09;;;;;;;;;;;;;;;;;;5093855;28;19908;-71
2020/12/14 14:11:35;;;;;;;;;;;;;;;;;;5093897;28;19908;-72
2020/12/14 14:14:01;;;;;;;;;;;;;;;;;;5093778;28;20254;-67
2020/12/14 14:16:27;;;;;;;;;;;;;;;;;;5076041;28;20223;-67
2020/12/14 14:18:53;;;;;;;;;;;;;;;;;;5093813;28;20377;-66
2020/12/14 14:21:19;;;;;;;;;;;;;;;;;;5093833;28;19919;-67
2020/12/14 14:23:45;;;;;;;;;;;;;;;;;;5093774;28;19915;-67
2020/12/14 14:26:12;;;;;;;;;;;;;;;;;;5093731;28;19964;-67
2020/12/14 14:28:38;;;;;;;;;;;;;;;;;;5098231;28;19912;-67
2020/12/14 14:31:04;;;;;;;;;;;;;;;;;;5097614;28;19908;-72
2020/12/14 14:33:30;;;;;;;;;;;;;;;;;;5098083;28;19919;-67
2020/12/14 14:35:56;;;;;;;;;;;;;;;;;;5097480;28;19915;-67
2020/12/14 14:38:22;;;;;;;;;;;;;;;;;;5098029;28;19916;-67
2020/12/14 14:40:48;;;;;;;;;;;;;;;;;;5097410;28;19908;-67
2020/12/14 14:43:14;;;;;;;;;;;;;;;;;;5097300;28;19920;-72
2020/12/14 14:45:41;;;;;;;;;;;;;;;;;;5097354;28;19912;-67
2020/12/14 14:48:07;;;;;;;;;;;;;;;;;;5078990;28;20274;-68
2020/12/14 14:50:33;;;;;;;;;;;;;;;;;;5097125;28;19908;-68
2020/12/14 14:52:59;;;;;;;;;;;;;;;;;;5097681;28;19908;-68
2020/12/14 14:55:25;;;;;;;;;;;;;;;;;;5097089;28;19916;-69
2020/12/14 14:57:51;;;;;;;;;;;;;;;;;;5097679;28;19912;-68
2020/12/14 15:00:17;;;;;;;;;;;;;;;;;;5096997;28;19912;-73
2020/12/14 15:02:43;;;;;;;;;;;;;;;;;;5096994;28;19995;-69
2020/12/14 15:05:09;;;;;;;;;;;;;;;;;;5096966;28;20018;-68
2020/12/14 15:07:35;;;;;;;;;;;;;;;;;;5078784;28;20277;-68
2020/12/14 15:10:01;;;;;;;;;;;;;;;;;;5097087;28;20389;-68
2020/12/14 15:12:28;;;;;;;;;;;;;;;;;;5097042;28;19957;-68
2020/12/14 15:14:54;;;;;;;;;;;;;;;;;;5096725;28;19916;-68
2020/12/14 15:17:20;;;;;;;;;;;;;;;;;;5096712;28;19909;-68
2020/12/14 15:19:47;;;;;;;;;;;;;;;;;;5097246;28;19908;-68
2020/12/14 15:22:13;;;;;;;;;;;;;;;;;;5096812;28;20350;-68
2020/12/14 15:24:39;;;;;;;;;;;;;;;;;;5096520;28;20354;-68
2020/12/14 15:27:05;;;;;;;;;;;;;;;;;;5096531;28;19908;-68
2020/12/14 15:29:31;;;;;;;;;;;;;;;;;;5096414;28;19935;-68
2020/12/14 15:31:57;;;;;;;;;;;;;;;;;;5096691;28;20281;-68
2020/12/14 15:34:23;;;;;;;;;;;;;;;;;;5096268;28;20401;-68
2020/12/14 15:36:49;;;;;;;;;;;;;;;;;;5096325;28;19915;-68
2020/12/14 15:39:15;;;;;;;;;;;;;;;;;;5095905;28;19962;-68
2020/12/14 15:41:41;;;;;;;;;;;;;;;;;;5096081;28;19973;-68
2020/12/14 15:44:07;;;;;;;;;;;;;;;;;;5096245;28;20250;-67
2020/12/14 15:46:33;;;;;;;;;;;;;;;;;;5096504;28;19908;-68
2020/12/14 15:48:59;;;;;;;;;;;;;;;;;;5096110;28;20312;-68
2020/12/14 15:51:25;;;;;;;;;;;;;;;;;;5096122;28;20357;-69
2020/12/14 15:53:52;;;;;;;;;;;;;;;;;;5095894;28;20018;-69
2020/12/14 15:56:18;;;;;;;;;;;;;;;;;;5095863;28;19912;-68
2020/12/14 15:58:44;;;;;;;;;;;;;;;;;;5096165;28;19931;-72
2020/12/14 16:01:15;;;;;;;;;;;;;;;;;;5096128;28;20347;-69
2020/12/14 16:03:41;;;;;;;;;;;;;;;;;;5095839;28;20007;-69
2020/12/14 16:06:07;;;;;;;;;;;;;;;;;;5096358;28;19908;-67
2020/12/14 16:08:33;;;;;;;;;;;;;;;;;;5095729;28;19909;-68
2020/12/14 16:10:59;;;;;;;;;;;;;;;;;;5095703;28;19908;-67
2020/12/14 16:13:25;;;;;;;;;;;;;;;;;;5095834;28;19912;-68
2020/12/14 16:15:51;;;;;;;;;;;;;;;;;;5095200;28;19908;-68
2020/12/14 16:18:17;;;;;;;;;;;;;;;;;;5095502;28;19953;-69
2020/12/14 16:20:43;;;;;;;;;;;;;;;;;;5096034;28;19961;-68
2020/12/14 16:23:09;;;;;;;;;;;;;;;;;;5095454;28;19916;-68
2020/12/14 16:25:35;;;;;;;;;;;;;;;;;;5095698;28;20239;-68
2020/12/14 16:28:01;;;;;;;;;;;;;;;;;;5095352;28;20401;-68
2020/12/14 16:30:27;;;;;;;;;;;;;;;;;;5095581;28;20322;-68
2020/12/14 16:32:53;;;;;;;;;;;;;;;;;;5095332;28;19990;-68
2020/12/14 16:35:19;;;;;;;;;;;;;;;;;;5095734;28;19916;-68
2020/12/14 16:37:45;;;;;;;;;;;;;;;;;;5095236;28;19948;-68